West Brooklyn, Illinois
Current Conditions -  °F | °C
As of 7:15 PM on Saturday 22 Nov 2014 (Local Time) from KRPJ Reporting Station
Overcast Overcast  
Wind Chill: 43°   Ceiling: 4700
Heat Index: 49°   Visibility: 7mi
Dew Point: 46°   Wind: 14mph
Humidity: 92%   Direction: 190°S
Pressure: 29.83"   Gusts: NA
Location:  41.69°N, 89.15°W
Report Text: KRPJ 230115Z AUTO 19012KT 7SM OVC047 09/08 A2983 RMK AO2 T00930080
Loading
Personal Weather Stations






























Interactive Weather Map New forecast layout! Learn more

10-Day Weather Forecast

Advertisements
Track Severe Weather on mobile